Unser Platzwetter:

(um das Bild zu aktualisieren oder bei unvollständig geladenem Bild den Reload-Button des Browsers drücken)

[Quelle: ADDS]
METAR
ETNN 251020Z 18011KT 9999 FEW020 SCT030 BKN045 13/06 Q0997 BLU =
ETNN 251000Z 2511/2520 21010G20KT 9999 NSW SCT020 BKN050 BY ETGL
TAF
ETNN 251000Z 2511/2520 21010G20KT 9999 NSW SCT020 BKN050 BY ETGL =
SR / SS: 05:25 / 17:25 UTC (Vettweiss-Soller 2020-09-25)

Aktuelle Windrichtung in Relation zu unserer Bahn:

 

Aktuelle Dichtehöhe bei uns am Platz: 963 ft.

PPR beachten

50 44 51 N / 06 34 01 E
525 ft
14/32 Gras 360 m
136.090 MHz
02424/901444

Kontakt:

LSG Gertrundenhof e.V.
c/o Rolf Viehs
Scheffensweg 33
52393 Hürtgenwald-Gey
02429/908222
0178/8845333

in Lokalzeit:
07:23
19:26